KFTY/FTY METAR and TAF weather

Enter ICAO airport designator
Station Type Date Time Source
KFTY METAR 2022/06/26 07:53 UTC NOAA

KFTY 260753Z 19004KT 10SM CLR 25/17 A3010 RMK AO2 SLP181 T02500167


Station Type Date Time Source
KFTY Decoded METAR 2022/06/26 07:53 UTC NOAA

ATLANTA FULTON COUNTY AIRPORT , GA, United States (KFTY) 33-47N 84-31W 263M
Jun 26, 2022 - 03:53 AM EDT / 2022.06.26 0753 UTC
Wind: from the S (190 degrees) at 5 MPH (4 KT):0
Visibility: 10 mile(s):0
Sky conditions: clear
Temperature: 77.0 F (25.0 C)
Dew Point: 62.1 F (16.7 C)
Relative Humidity: 59%
Pressure (altimeter): 30.1 in. Hg (1019 hPa)
ob: KFTY 260753Z 19004KT 10SM CLR 25/17 A3010 RMK AO2 SLP181 T02500167
cycle: 8

Station Type Date Time Source
KFTY TAF 2022/06/26 06:22 UTC NOAA

TAF KFTY 260520Z 2606/2706 VRB03KT P6SM SCT250
FM261400 21005KT P6SM FEW035
FM261800 15005KT P6SM SCT050
FM270300 VRB03KT P6SM VCSH SCT080 BKN250

Example: see airport list